createdAt,value
2019-02-10T00:00:05.519Z,47.07
2019-02-10T00:02:31.687Z,48.57
2019-02-10T00:04:57.841Z,36.67
2019-02-10T00:07:26.600Z,35.73
2019-02-10T00:09:52.759Z,31.63
2019-02-10T00:12:19.464Z,30.00
2019-02-10T00:14:45.795Z,34.07
2019-02-10T00:17:11.965Z,25.03
2019-02-10T00:19:38.119Z,30.30
2019-02-10T00:22:04.411Z,29.80
2019-02-10T00:24:31.030Z,26.77
2019-02-10T00:26:57.196Z,31.30
2019-02-10T00:29:23.489Z,23.50
2019-02-10T00:31:49.761Z,25.63
2019-02-10T00:34:16.019Z,27.93
2019-02-10T00:36:42.341Z,25.63
2019-02-10T00:39:09.000Z,36.60
2019-02-10T00:41:35.261Z,41.63
2019-02-10T00:44:01.583Z,51.87
2019-02-10T00:46:27.826Z,56.03
2019-02-10T00:48:54.000Z,47.47
2019-02-10T00:51:20.307Z,26.67
2019-02-10T00:53:46.458Z,33.80
2019-02-10T00:56:12.713Z,28.30
2019-02-10T00:58:39.028Z,26.30
2019-02-10T01:01:05.320Z,29.30
2019-02-10T01:03:31.485Z,28.60
2019-02-10T01:05:57.788Z,32.33
2019-02-10T01:08:24.270Z,28.03
2019-02-10T01:10:50.430Z,23.43
2019-02-10T01:13:16.742Z,27.93
2019-02-10T01:15:43.017Z,28.83
2019-02-10T01:18:09.183Z,26.73
2019-02-10T01:20:35.485Z,26.63
2019-02-10T01:23:01.971Z,24.83
2019-02-10T01:25:28.267Z,19.50
2019-02-10T01:27:54.571Z,24.33
2019-02-10T01:30:20.852Z,17.07
2019-02-10T01:32:47.118Z,18.97
2019-02-10T01:35:13.406Z,27.00
2019-02-10T01:37:41.945Z,20.73
2019-02-10T01:40:09.607Z,18.57
2019-02-10T01:42:35.829Z,36.00
2019-02-10T01:45:02.111Z,56.27
2019-02-10T01:47:28.363Z,34.07
2019-02-10T01:49:55.163Z,45.63
2019-02-10T01:52:21.334Z,68.10
2019-02-10T01:54:47.499Z,55.37
2019-02-10T01:57:13.782Z,56.10
2019-02-10T01:59:40.038Z,66.60
2019-02-10T02:02:06.311Z,80.47
2019-02-10T02:04:32.507Z,69.63
2019-02-10T02:06:58.769Z,73.03
2019-02-10T02:09:24.941Z,68.50
2019-02-10T02:11:51.133Z,70.33
2019-02-10T02:14:17.390Z,71.43
2019-02-10T02:16:43.554Z,66.83
2019-02-10T02:19:09.861Z,76.60
2019-02-10T02:21:36.021Z,74.33
2019-02-10T02:24:02.296Z,74.60
2019-02-10T02:26:28.673Z,77.23
2019-02-10T02:28:54.826Z,57.97
2019-02-10T02:31:21.083Z,57.87
2019-02-10T02:33:47.393Z,61.73
2019-02-10T02:36:13.566Z,59.43
2019-02-10T02:38:39.730Z,62.23
2019-02-10T02:41:05.923Z,66.27
2019-02-10T02:43:32.103Z,54.97
2019-02-10T02:45:58.266Z,65.17
2019-02-10T02:48:24.564Z,72.13
2019-02-10T02:50:50.728Z,70.43
2019-02-10T02:53:16.995Z,65.77
2019-02-10T02:55:43.210Z,70.80
2019-02-10T02:58:09.372Z,58.87
2019-02-10T03:00:35.530Z,64.07
2019-02-10T03:03:01.742Z,61.63
2019-02-10T03:05:27.892Z,65.37
2019-02-10T03:07:54.067Z,54.47
2019-02-10T03:10:20.360Z,50.83
2019-02-10T03:12:46.520Z,56.87
2019-02-10T03:15:12.692Z,54.33
2019-02-10T03:17:38.889Z,55.67
2019-02-10T03:20:06.588Z,56.63
2019-02-10T03:22:32.720Z,62.93
2019-02-10T03:24:58.983Z,47.53
2019-02-10T03:27:25.280Z,38.10
2019-02-10T03:29:51.447Z,54.37
2019-02-10T03:32:17.747Z,47.53
2019-02-10T03:34:43.900Z,50.60
2019-02-10T03:37:10.086Z,44.90
2019-02-10T03:39:36.378Z,55.57
2019-02-10T03:42:02.625Z,57.03
2019-02-10T03:44:28.988Z,55.77
2019-02-10T03:46:55.184Z,40.20
2019-02-10T03:49:21.349Z,46.50
2019-02-10T03:51:47.513Z,40.57
2019-02-10T03:54:13.703Z,42.07
2019-02-10T03:56:39.964Z,37.77
2019-02-10T03:59:06.129Z,42.90
2019-02-10T04:01:32.328Z,49.63
2019-02-10T04:03:58.584Z,50.03
2019-02-10T04:06:24.748Z,44.40
2019-02-10T04:08:51.047Z,45.77
2019-02-10T04:11:17.212Z,62.23
2019-02-10T04:13:43.379Z,83.30
2019-02-10T04:16:09.677Z,59.53
2019-02-10T04:18:35.853Z,50.17
2019-02-10T04:21:02.115Z,51.27
2019-02-10T04:23:28.412Z,36.70
2019-02-10T04:25:54.685Z,43.27
2019-02-10T04:28:20.993Z,45.87
2019-02-10T04:30:47.301Z,41.93
2019-02-10T04:33:13.560Z,44.43
2019-02-10T04:35:39.719Z,88.87
2019-02-10T04:38:06.039Z,49.87
2019-02-10T04:40:32.214Z,25.67
2019-02-10T04:42:58.364Z,25.57
2019-02-10T04:45:24.666Z,22.80
2019-02-10T04:47:50.837Z,32.63
2019-02-10T04:50:17.094Z,25.13
2019-02-10T04:52:43.283Z,21.90
2019-02-10T04:55:09.560Z,21.43
2019-02-10T04:57:35.724Z,30.10
2019-02-10T05:00:02.414Z,39.87
2019-02-10T05:02:28.688Z,27.90
2019-02-10T05:04:54.852Z,50.10
2019-02-10T05:07:21.139Z,53.00
2019-02-10T05:09:47.686Z,46.13
2019-02-10T05:12:13.854Z,53.60
2019-02-10T05:14:40.046Z,59.47
2019-02-10T05:17:06.209Z,52.90
2019-02-10T05:19:32.480Z,59.30
2019-02-10T05:21:58.682Z,54.10
2019-02-10T05:24:24.944Z,52.93
2019-02-10T05:26:51.206Z,55.90
2019-02-10T05:29:17.451Z,47.50
2019-02-10T05:31:43.622Z,46.70
2019-02-10T05:34:09.782Z,55.67
2019-02-10T05:36:35.965Z,48.57
2019-02-10T05:39:03.635Z,55.60
2019-02-10T05:41:29.793Z,75.80
2019-02-10T05:43:56.093Z,49.77
2019-02-10T05:46:22.272Z,62.03
2019-02-10T05:48:48.552Z,64.70
2019-02-10T05:51:14.850Z,45.63
2019-02-10T05:53:41.010Z,41.83
2019-02-10T05:56:07.278Z,40.80
2019-02-10T05:58:33.472Z,43.97
2019-02-10T06:01:37.170Z,55.47
2019-02-10T06:04:03.403Z,62.57
2019-02-10T06:06:29.549Z,70.47
2019-02-10T06:08:55.816Z,84.70
2019-02-10T06:11:22.118Z,77.83
2019-02-10T06:13:48.431Z,72.77
2019-02-10T06:16:15.049Z,73.37
2019-02-10T06:18:41.344Z,66.67
2019-02-10T06:21:07.616Z,60.53
2019-02-10T06:23:33.776Z,62.53
2019-02-10T06:25:59.969Z,39.33
2019-02-10T06:28:26.127Z,27.20
2019-02-10T06:30:53.147Z,24.97
2019-02-10T06:33:19.343Z,29.83
2019-02-10T06:35:45.502Z,33.17
2019-02-10T06:38:11.813Z,21.53
2019-02-10T06:40:38.101Z,21.80
2019-02-10T06:43:04.362Z,26.07
2019-02-10T06:45:30.522Z,37.60
2019-02-10T06:47:57.824Z,83.40
2019-02-10T06:50:24.293Z,80.00
2019-02-10T06:52:50.450Z,75.43
2019-02-10T06:55:16.643Z,102.90
2019-02-10T06:57:42.828Z,68.07
2019-02-10T07:00:23.631Z,56.53
2019-02-10T07:03:28.758Z,64.23
2019-02-10T07:05:54.949Z,44.37
2019-02-10T07:08:21.217Z,51.03
2019-02-10T07:10:47.372Z,67.70
2019-02-10T07:13:17.171Z,47.10
2019-02-10T07:16:20.685Z,78.20
2019-02-10T07:19:24.090Z,79.90
2019-02-10T07:21:50.356Z,84.30
2019-02-10T07:24:31.470Z,66.87
2019-02-10T07:27:16.279Z,73.23
2019-02-10T07:30:05.878Z,61.93
2019-02-10T07:32:35.692Z,60.23
2019-02-10T07:35:11.583Z,56.60
2019-02-10T07:37:50.233Z,51.00
2019-02-10T07:40:45.901Z,52.93
2019-02-10T07:43:43.385Z,52.57
2019-02-10T07:46:27.768Z,38.07
2019-02-10T07:49:00.521Z,39.37
2019-02-10T07:51:33.443Z,35.97
2019-02-10T07:54:29.000Z,33.57
2019-02-10T07:57:18.434Z,28.90
2019-02-10T07:59:54.164Z,31.70
2019-02-10T08:02:53.224Z,35.23
2019-02-10T08:05:28.731Z,28.23
2019-02-10T08:07:58.528Z,31.60
2019-02-10T08:10:49.698Z,32.40
2019-02-10T08:13:28.524Z,30.90
2019-02-10T08:16:20.696Z,28.30
2019-02-10T08:18:59.273Z,35.17
2019-02-10T08:21:41.079Z,35.10
2019-02-10T08:24:31.002Z,30.47
2019-02-10T08:27:00.768Z,35.73
2019-02-10T08:29:48.864Z,37.60
2019-02-10T08:32:27.141Z,29.43
2019-02-10T08:35:24.249Z,35.60
2019-02-10T08:38:10.785Z,26.23
2019-02-10T08:40:57.361Z,29.53
2019-02-10T08:43:27.134Z,29.60
2019-02-10T08:46:09.340Z,30.93
2019-02-10T08:48:47.535Z,32.47
2019-02-10T08:51:35.500Z,34.67
2019-02-10T08:54:01.666Z,23.10
2019-02-10T08:56:27.829Z,25.07
2019-02-10T08:58:54.012Z,26.87
2019-02-10T09:01:20.277Z,26.60
2019-02-10T09:03:46.440Z,29.77
2019-02-10T09:06:12.735Z,29.57
2019-02-10T09:08:38.911Z,25.83
2019-02-10T09:11:05.072Z,25.13
2019-02-10T09:13:31.374Z,29.37
2019-02-10T09:15:57.531Z,29.80
2019-02-10T09:18:24.098Z,29.57
2019-02-10T09:20:50.287Z,28.10
2019-02-10T09:23:16.447Z,28.50
2019-02-10T09:25:42.621Z,21.57
2019-02-10T09:28:08.812Z,24.30
2019-02-10T09:30:34.975Z,19.97
2019-02-10T09:33:01.136Z,20.20
2019-02-10T09:35:27.439Z,19.13
2019-02-10T09:37:53.630Z,19.67
2019-02-10T09:40:19.801Z,20.60
2019-02-10T09:42:46.097Z,26.97
2019-02-10T09:45:12.475Z,18.37
2019-02-10T09:47:38.855Z,21.73
2019-02-10T09:50:08.668Z,26.57
2019-02-10T09:52:34.946Z,23.33
2019-02-10T09:55:01.226Z,29.97
2019-02-10T09:57:27.437Z,33.00
2019-02-10T09:59:53.696Z,25.27
2019-02-10T10:02:19.853Z,20.93
2019-02-10T10:04:46.169Z,22.13
2019-02-10T10:07:12.452Z,22.13
2019-02-10T10:09:38.641Z,21.93
2019-02-10T10:12:04.853Z,23.10
2019-02-10T10:14:31.444Z,19.10
2019-02-10T10:16:57.727Z,20.93
2019-02-10T10:19:23.938Z,20.50
2019-02-10T10:21:50.220Z,18.97
2019-02-10T10:24:16.521Z,18.67
2019-02-10T10:26:42.728Z,17.60
2019-02-10T10:29:09.125Z,20.87
2019-02-10T10:31:35.281Z,18.60
2019-02-10T10:34:01.584Z,21.33
2019-02-10T10:36:27.901Z,19.67
2019-02-10T10:38:54.094Z,20.63
2019-02-10T10:41:20.413Z,23.20
2019-02-10T10:43:46.700Z,21.93
2019-02-10T10:46:12.951Z,20.30
2019-02-10T10:48:39.247Z,22.93
2019-02-10T10:51:05.405Z,18.97
2019-02-10T10:53:31.697Z,26.27
2019-02-10T10:55:58.002Z,26.23
2019-02-10T10:58:24.191Z,27.93
2019-02-10T11:00:50.353Z,25.13
2019-02-10T11:03:17.317Z,21.43
2019-02-10T11:05:43.856Z,27.17
2019-02-10T11:08:10.133Z,19.67
2019-02-10T11:10:36.463Z,21.73
2019-02-10T11:13:02.926Z,21.07
2019-02-10T11:15:29.097Z,24.07
2019-02-10T11:17:55.449Z,20.40
2019-02-10T11:20:21.681Z,21.57
2019-02-10T11:22:47.972Z,24.03
2019-02-10T11:25:14.289Z,25.63
2019-02-10T11:27:40.457Z,19.53
2019-02-10T11:30:11.864Z,23.50
2019-02-10T11:32:38.072Z,20.20
2019-02-10T11:35:05.759Z,24.37
2019-02-10T11:37:32.091Z,27.03
2019-02-10T11:39:58.391Z,27.53
2019-02-10T11:42:24.558Z,21.90
2019-02-10T11:44:54.922Z,19.90
2019-02-10T11:47:27.731Z,21.20
2019-02-10T11:49:53.900Z,20.90
2019-02-10T11:52:20.187Z,23.93
2019-02-10T11:54:46.500Z,23.43
2019-02-10T11:57:12.795Z,22.63
2019-02-10T11:59:39.084Z,23.43
2019-02-10T12:02:05.306Z,23.50
2019-02-10T12:04:31.603Z,24.03
2019-02-10T12:06:57.866Z,24.20
2019-02-10T12:09:24.060Z,23.37
2019-02-10T12:11:50.328Z,26.43
2019-02-10T12:14:16.518Z,21.87
2019-02-10T12:16:42.725Z,22.37
2019-02-10T12:19:09.135Z,27.00
2019-02-10T12:21:36.396Z,27.67
2019-02-10T12:24:02.690Z,25.63
2019-02-10T12:26:28.981Z,30.77
2019-02-10T12:28:55.260Z,24.83
2019-02-10T12:31:21.542Z,27.37
2019-02-10T12:33:47.707Z,29.20
2019-02-10T12:36:13.860Z,22.07
2019-02-10T12:38:40.185Z,26.30
2019-02-10T12:41:06.458Z,32.50
2019-02-10T12:43:36.934Z,37.50
2019-02-10T12:46:03.130Z,21.97
2019-02-10T12:48:29.401Z,19.83
2019-02-10T12:50:55.657Z,24.13
2019-02-10T12:53:21.976Z,20.13
2019-02-10T12:55:48.142Z,18.07
2019-02-10T12:58:14.418Z,19.97
2019-02-10T13:00:43.279Z,23.13
2019-02-10T13:03:09.454Z,20.97
2019-02-10T13:05:35.752Z,21.60
2019-02-10T13:08:02.124Z,24.07
2019-02-10T13:10:28.451Z,20.80
2019-02-10T13:12:54.577Z,22.13
2019-02-10T13:15:20.773Z,17.47
2019-02-10T13:17:48.933Z,29.93
2019-02-10T13:20:15.094Z,18.27
2019-02-10T13:22:41.418Z,20.57
2019-02-10T13:25:09.572Z,20.23
2019-02-10T13:27:35.918Z,26.63
2019-02-10T13:30:04.121Z,21.70
2019-02-10T13:32:30.279Z,21.67
2019-02-10T13:34:56.621Z,19.23
2019-02-10T13:37:23.015Z,22.63
2019-02-10T13:39:49.289Z,21.17
2019-02-10T13:42:15.456Z,21.90
2019-02-10T13:44:41.642Z,27.83
2019-02-10T13:47:07.806Z,19.20
2019-02-10T13:49:33.969Z,21.13
2019-02-10T13:52:00.279Z,22.03
2019-02-10T13:54:26.526Z,23.83
2019-02-10T13:56:52.685Z,24.97
2019-02-10T13:59:18.903Z,26.90
2019-02-10T14:01:45.065Z,31.03
2019-02-10T14:04:11.233Z,28.37
2019-02-10T14:06:37.420Z,23.97
2019-02-10T14:09:06.408Z,26.67
2019-02-10T14:11:36.295Z,21.67
2019-02-10T14:14:02.616Z,23.83
2019-02-10T14:16:28.799Z,21.20
2019-02-10T14:18:54.973Z,15.73
2019-02-10T14:21:21.202Z,26.63
2019-02-10T14:23:47.369Z,19.77
2019-02-10T14:26:13.570Z,31.67
2019-02-10T14:28:39.800Z,28.27
2019-02-10T14:31:06.007Z,27.83
2019-02-10T14:33:38.644Z,26.07
2019-02-10T14:36:00.431Z,25.90
2019-02-10T14:38:26.609Z,20.77
2019-02-10T14:40:53.022Z,19.53
2019-02-10T14:43:19.345Z,25.27
2019-02-10T14:45:45.523Z,32.20
2019-02-10T14:48:11.808Z,24.80
2019-02-10T14:50:38.128Z,22.00
2019-02-10T14:53:04.305Z,28.33
2019-02-10T14:55:30.489Z,33.77
2019-02-10T14:57:56.706Z,34.13
2019-02-10T15:00:23.018Z,35.67
2019-02-10T15:02:49.216Z,58.43
2019-02-10T15:05:15.544Z,58.20
2019-02-10T15:07:41.729Z,56.60
2019-02-10T15:10:11.970Z,60.00
2019-02-10T15:12:38.369Z,57.73
2019-02-10T15:15:07.568Z,83.57
2019-02-10T15:17:33.966Z,96.23
2019-02-10T15:20:00.598Z,114.40
2019-02-10T15:22:26.996Z,136.57
2019-02-10T15:24:53.287Z,115.90
2019-02-10T15:27:20.051Z,113.60
2019-02-10T15:29:46.384Z,116.97
2019-02-10T15:32:16.979Z,86.33
2019-02-10T15:34:43.574Z,68.33
2019-02-10T15:37:09.772Z,73.80
2019-02-10T15:39:35.941Z,85.70
2019-02-10T15:42:09.282Z,105.13
2019-02-10T15:44:30.435Z,80.50
2019-02-10T15:46:56.718Z,82.90
2019-02-10T15:49:23.053Z,93.90
2019-02-10T15:51:49.238Z,76.97
2019-02-10T15:54:15.420Z,72.50
2019-02-10T15:56:41.654Z,87.03
2019-02-10T15:59:07.962Z,114.63
2019-02-10T16:01:34.243Z,171.40
2019-02-10T16:04:00.453Z,296.33
2019-02-10T16:06:26.745Z,256.00
2019-02-10T16:08:53.033Z,169.17
2019-02-10T16:11:19.269Z,163.67
2019-02-10T16:13:45.570Z,151.63
2019-02-10T16:16:11.766Z,105.87
2019-02-10T16:18:38.133Z,108.97
2019-02-10T16:21:04.420Z,95.57
2019-02-10T16:23:30.723Z,109.20
2019-02-10T16:25:56.938Z,83.50
2019-02-10T16:28:23.107Z,99.23
2019-02-10T16:30:49.385Z,91.07
2019-02-10T16:33:15.625Z,109.20
2019-02-10T16:35:41.911Z,107.27
2019-02-10T16:38:08.090Z,127.20
2019-02-10T16:40:34.310Z,109.83
2019-02-10T16:43:00.649Z,166.33
2019-02-10T16:45:26.833Z,184.00
2019-02-10T16:47:53.172Z,170.93
2019-02-10T16:50:19.443Z,169.10
2019-02-10T16:52:45.741Z,119.87
2019-02-10T16:55:17.393Z,144.10
2019-02-10T16:57:43.556Z,64.13
2019-02-10T17:00:11.958Z,89.13
2019-02-10T17:02:47.814Z,95.35
2019-02-10T17:05:14.191Z,71.57
2019-02-10T17:07:40.509Z,107.87
2019-02-10T17:10:09.546Z,132.50
2019-02-10T17:12:35.957Z,86.37
2019-02-10T17:15:03.930Z,76.57
2019-02-10T17:17:30.265Z,77.33
2019-02-10T17:19:56.554Z,79.20
2019-02-10T17:22:23.973Z,77.33
2019-02-10T17:24:50.268Z,105.43
2019-02-10T17:27:16.442Z,325.47
2019-02-10T17:29:42.730Z,136.90
2019-02-10T17:32:08.952Z,111.50
2019-02-10T17:34:35.146Z,107.33
2019-02-10T17:37:01.425Z,106.43
2019-02-10T17:39:27.645Z,89.67
2019-02-10T17:41:53.825Z,105.50
2019-02-10T17:44:20.101Z,185.93
2019-02-10T17:46:46.328Z,128.43
2019-02-10T17:49:12.621Z,91.07
2019-02-10T17:51:38.898Z,144.83
2019-02-10T17:54:05.144Z,117.27
2019-02-10T17:56:31.313Z,113.43
2019-02-10T17:58:57.604Z,126.43
2019-02-10T18:01:23.916Z,111.67
2019-02-10T18:03:50.280Z,116.93
2019-02-10T18:06:16.603Z,118.40
2019-02-10T18:08:42.834Z,129.90
2019-02-10T18:11:09.016Z,146.10
2019-02-10T18:13:35.297Z,124.40
2019-02-10T18:16:03.442Z,103.10
2019-02-10T18:18:31.533Z,105.23
2019-02-10T18:21:18.434Z,121.57
2019-02-10T18:24:11.969Z,105.90
2019-02-10T18:26:40.149Z,165.83
2019-02-10T18:29:10.921Z,125.47
2019-02-10T18:31:44.910Z,105.43
2019-02-10T18:34:21.644Z,113.80
2019-02-10T18:36:49.773Z,114.57
2019-02-10T18:39:20.820Z,88.53
2019-02-10T18:41:48.899Z,88.07
2019-02-10T18:44:17.030Z,71.70
2019-02-10T18:46:56.960Z,54.60
2019-02-10T18:49:28.073Z,50.87
2019-02-10T18:52:01.746Z,76.30
2019-02-10T18:54:38.698Z,41.90
2019-02-10T18:57:06.781Z,64.87
2019-02-10T18:59:34.883Z,68.10
2019-02-10T19:02:03.028Z,52.83
2019-02-10T19:04:31.117Z,68.00
2019-02-10T19:07:01.746Z,63.50
2019-02-10T20:29:23.360Z,84.10
2019-02-10T20:31:51.530Z,89.30
2019-02-10T20:34:28.432Z,86.20
2019-02-10T20:36:56.564Z,97.03
2019-02-10T20:39:30.417Z,94.30
2019-02-10T20:42:12.443Z,97.60
2019-02-10T20:44:44.137Z,107.90
2019-02-10T20:47:24.088Z,84.77
2019-02-10T20:49:54.941Z,86.07
2019-02-10T20:52:32.789Z,82.43
2019-02-10T20:55:09.739Z,79.97
2019-02-10T20:57:40.636Z,64.33
2019-02-10T21:00:27.319Z,67.67
2019-02-10T21:03:00.991Z,66.43
2019-02-10T21:05:47.295Z,68.57
2019-02-10T21:08:31.846Z,74.93
2019-02-10T21:11:02.475Z,94.37
2019-02-10T21:13:33.127Z,81.27
2019-02-10T21:16:01.272Z,98.50
2019-02-10T21:18:45.921Z,86.30
2019-02-10T21:21:30.404Z,80.47
2019-02-10T21:23:58.494Z,75.53
2019-02-10T21:26:32.376Z,66.20
2019-02-10T21:29:00.460Z,82.03
2019-02-10T21:31:34.167Z,85.67
2019-02-10T21:34:02.252Z,96.53
2019-02-10T21:36:35.989Z,72.90
2019-02-10T21:39:21.665Z,78.23
2019-02-10T21:42:04.664Z,64.33
2019-02-10T21:44:32.753Z,68.87
2019-02-10T21:47:17.397Z,75.47
2019-02-10T21:49:43.680Z,60.17
2019-02-10T21:52:09.981Z,71.43
2019-02-10T21:54:36.201Z,62.50
2019-02-10T21:57:02.376Z,69.10
2019-02-10T21:59:28.672Z,66.73
2019-02-10T22:01:54.883Z,71.07
2019-02-10T22:04:21.049Z,78.93
2019-02-10T22:06:47.339Z,58.60
2019-02-10T22:09:13.554Z,72.87
2019-02-10T22:11:39.735Z,94.10
2019-02-10T22:14:06.793Z,76.83
2019-02-10T22:16:33.019Z,64.83
2019-02-10T22:18:59.189Z,60.83
2019-02-10T22:21:25.401Z,56.40
2019-02-10T22:23:51.618Z,52.17
2019-02-10T22:26:17.802Z,45.07
2019-02-10T22:28:43.977Z,51.60
2019-02-10T22:31:18.450Z,62.90
2019-02-10T22:33:38.363Z,64.97
2019-02-10T22:36:04.543Z,71.17
2019-02-10T22:38:30.856Z,67.37
2019-02-10T22:40:57.035Z,71.20
2019-02-10T22:43:23.215Z,60.20
2019-02-10T22:45:49.443Z,59.73
2019-02-10T22:48:15.716Z,72.57
2019-02-10T22:50:41.894Z,69.17
2019-02-10T22:53:08.111Z,59.00
2019-02-10T22:55:34.291Z,59.60
2019-02-10T22:58:00.477Z,70.03
2019-02-10T23:00:49.226Z,66.50
2019-02-10T23:03:15.413Z,58.67
2019-02-10T23:05:42.288Z,66.33
2019-02-10T23:08:08.635Z,55.97
2019-02-10T23:10:34.813Z,57.00
2019-02-10T23:13:00.995Z,72.43
2019-02-10T23:15:27.220Z,64.67
2019-02-10T23:17:53.409Z,56.23
2019-02-10T23:20:19.696Z,86.00
2019-02-10T23:22:45.926Z,60.97
2019-02-10T23:25:12.103Z,53.40
2019-02-10T23:27:38.288Z,59.40
2019-02-10T23:30:05.606Z,66.17
2019-02-10T23:32:31.790Z,67.53
2019-02-10T23:34:58.070Z,64.37
2019-02-10T23:37:24.303Z,62.63
2019-02-10T23:39:50.496Z,59.93
2019-02-10T23:42:16.770Z,58.60
2019-02-10T23:44:43.010Z,63.97
2019-02-10T23:47:09.199Z,64.87
2019-02-10T23:49:35.383Z,62.70
2019-02-10T23:52:01.696Z,61.57
2019-02-10T23:54:27.892Z,59.70
2019-02-10T23:56:54.061Z,58.00
2019-02-10T23:59:20.395Z,62.17
